sensor_id;sensor_type;location;lat;lon;timestamp;P1;durP1;ratioP1;P2;durP2;ratioP2
16957;SDS011;8595;52.542;11.974;2023-03-13T00:01:44;25.30;;;11.47;;
16957;SDS011;8595;52.542;11.974;2023-03-13T00:04:12;31.80;;;11.97;;
16957;SDS011;8595;52.542;11.974;2023-03-13T00:06:40;22.97;;;10.47;;
16957;SDS011;8595;52.542;11.974;2023-03-13T00:09:08;26.93;;;10.80;;
16957;SDS011;8595;52.542;11.974;2023-03-13T00:11:37;25.37;;;11.43;;
16957;SDS011;8595;52.542;11.974;2023-03-13T00:14:04;18.57;;;10.37;;
16957;SDS011;8595;52.542;11.974;2023-03-13T00:16:32;19.13;;;9.47;;
16957;SDS011;8595;52.542;11.974;2023-03-13T00:19:01;25.67;;;11.30;;
16957;SDS011;8595;52.542;11.974;2023-03-13T00:21:28;22.60;;;11.23;;
16957;SDS011;8595;52.542;11.974;2023-03-13T00:23:56;21.40;;;11.03;;
16957;SDS011;8595;52.542;11.974;2023-03-13T00:26:25;27.73;;;11.03;;
16957;SDS011;8595;52.542;11.974;2023-03-13T00:28:52;19.53;;;11.50;;
16957;SDS011;8595;52.542;11.974;2023-03-13T00:31:20;19.97;;;10.20;;
16957;SDS011;8595;52.542;11.974;2023-03-13T00:33:48;30.13;;;11.67;;
16957;SDS011;8595;52.542;11.974;2023-03-13T00:36:17;21.77;;;10.73;;
16957;SDS011;8595;52.542;11.974;2023-03-13T00:38:45;22.80;;;10.20;;
16957;SDS011;8595;52.542;11.974;2023-03-13T00:41:13;29.63;;;11.30;;
16957;SDS011;8595;52.542;11.974;2023-03-13T00:43:42;21.00;;;10.00;;
16957;SDS011;8595;52.542;11.974;2023-03-13T00:46:10;25.67;;;9.73;;
16957;SDS011;8595;52.542;11.974;2023-03-13T00:48:37;28.03;;;10.20;;
16957;SDS011;8595;52.542;11.974;2023-03-13T00:51:05;24.00;;;10.80;;
16957;SDS011;8595;52.542;11.974;2023-03-13T00:53:32;23.27;;;9.97;;
16957;SDS011;8595;52.542;11.974;2023-03-13T00:56:01;24.33;;;10.50;;
16957;SDS011;8595;52.542;11.974;2023-03-13T00:58:31;23.17;;;9.73;;
16957;SDS011;8595;52.542;11.974;2023-03-13T01:01:05;17.30;;;8.67;;
16957;SDS011;8595;52.542;11.974;2023-03-13T01:03:32;22.30;;;10.30;;
16957;SDS011;8595;52.542;11.974;2023-03-13T01:06:00;19.03;;;9.80;;
16957;SDS011;8595;52.542;11.974;2023-03-13T01:08:29;22.60;;;8.53;;
16957;SDS011;8595;52.542;11.974;2023-03-13T01:10:59;15.43;;;8.00;;
16957;SDS011;8595;52.542;11.974;2023-03-13T01:13:26;19.50;;;8.73;;
16957;SDS011;8595;52.542;11.974;2023-03-13T01:15:55;23.13;;;8.17;;
16957;SDS011;8595;52.542;11.974;2023-03-13T01:18:22;18.60;;;7.93;;
16957;SDS011;8595;52.542;11.974;2023-03-13T01:20:48;19.80;;;8.20;;
16957;SDS011;8595;52.542;11.974;2023-03-13T01:23:15;25.80;;;9.07;;
16957;SDS011;8595;52.542;11.974;2023-03-13T01:25:41;20.50;;;7.23;;
16957;SDS011;8595;52.542;11.974;2023-03-13T01:28:08;24.03;;;7.70;;
16957;SDS011;8595;52.542;11.974;2023-03-13T01:30:35;20.70;;;7.67;;
16957;SDS011;8595;52.542;11.974;2023-03-13T01:33:03;16.87;;;7.27;;
16957;SDS011;8595;52.542;11.974;2023-03-13T01:35:29;20.47;;;7.13;;
16957;SDS011;8595;52.542;11.974;2023-03-13T01:37:56;20.20;;;8.03;;
16957;SDS011;8595;52.542;11.974;2023-03-13T01:40:23;21.93;;;7.83;;
16957;SDS011;8595;52.542;11.974;2023-03-13T01:42:50;22.20;;;7.67;;
16957;SDS011;8595;52.542;11.974;2023-03-13T01:48:42;21.57;;;7.30;;
16957;SDS011;8595;52.542;11.974;2023-03-13T01:51:13;19.43;;;7.47;;
16957;SDS011;8595;52.542;11.974;2023-03-13T01:53:43;15.67;;;7.00;;
16957;SDS011;8595;52.542;11.974;2023-03-13T01:56:14;21.30;;;8.00;;
16957;SDS011;8595;52.542;11.974;2023-03-13T01:58:44;20.57;;;7.63;;
16957;SDS011;8595;52.542;11.974;2023-03-13T02:01:12;19.40;;;7.47;;
16957;SDS011;8595;52.542;11.974;2023-03-13T02:03:41;19.97;;;7.27;;
16957;SDS011;8595;52.542;11.974;2023-03-13T02:06:10;26.87;;;8.43;;
16957;SDS011;8595;52.542;11.974;2023-03-13T02:08:39;18.07;;;6.93;;
16957;SDS011;8595;52.542;11.974;2023-03-13T02:11:09;24.40;;;8.83;;
16957;SDS011;8595;52.542;11.974;2023-03-13T02:13:44;30.00;;;9.43;;
16957;SDS011;8595;52.542;11.974;2023-03-13T02:16:12;21.53;;;7.80;;
16957;SDS011;8595;52.542;11.974;2023-03-13T02:18:39;20.03;;;7.17;;
16957;SDS011;8595;52.542;11.974;2023-03-13T02:21:09;20.07;;;7.50;;
16957;SDS011;8595;52.542;11.974;2023-03-13T02:23:41;26.87;;;8.27;;
16957;SDS011;8595;52.542;11.974;2023-03-13T02:26:18;27.13;;;9.13;;
16957;SDS011;8595;52.542;11.974;2023-03-13T02:28:45;22.70;;;7.60;;
16957;SDS011;8595;52.542;11.974;2023-03-13T02:31:14;23.33;;;8.67;;
16957;SDS011;8595;52.542;11.974;2023-03-13T02:33:41;20.93;;;6.90;;
16957;SDS011;8595;52.542;11.974;2023-03-13T02:36:08;17.70;;;7.33;;
16957;SDS011;8595;52.542;11.974;2023-03-13T02:38:39;21.00;;;7.23;;
16957;SDS011;8595;52.542;11.974;2023-03-13T02:41:10;30.83;;;7.67;;
16957;SDS011;8595;52.542;11.974;2023-03-13T02:43:39;22.13;;;7.00;;
16957;SDS011;8595;52.542;11.974;2023-03-13T02:46:07;22.07;;;7.10;;
16957;SDS011;8595;52.542;11.974;2023-03-13T02:48:36;22.77;;;7.97;;
16957;SDS011;8595;52.542;11.974;2023-03-13T02:51:05;20.60;;;7.13;;
16957;SDS011;8595;52.542;11.974;2023-03-13T02:53:37;21.20;;;7.53;;
16957;SDS011;8595;52.542;11.974;2023-03-13T02:56:04;22.90;;;7.10;;
16957;SDS011;8595;52.542;11.974;2023-03-13T02:58:37;23.83;;;7.80;;
16957;SDS011;8595;52.542;11.974;2023-03-13T03:01:06;15.43;;;6.00;;
16957;SDS011;8595;52.542;11.974;2023-03-13T03:03:33;18.13;;;6.50;;
16957;SDS011;8595;52.542;11.974;2023-03-13T03:06:00;26.97;;;7.27;;
16957;SDS011;8595;52.542;11.974;2023-03-13T03:08:28;28.83;;;6.77;;
16957;SDS011;8595;52.542;11.974;2023-03-13T03:10:55;23.97;;;6.57;;
16957;SDS011;8595;52.542;11.974;2023-03-13T03:13:21;21.33;;;6.53;;
16957;SDS011;8595;52.542;11.974;2023-03-13T03:15:49;23.07;;;6.70;;
16957;SDS011;8595;52.542;11.974;2023-03-13T03:18:16;16.50;;;6.50;;
16957;SDS011;8595;52.542;11.974;2023-03-13T03:20:43;20.27;;;6.20;;
16957;SDS011;8595;52.542;11.974;2023-03-13T03:23:09;17.50;;;6.27;;
16957;SDS011;8595;52.542;11.974;2023-03-13T03:25:36;22.33;;;6.03;;
16957;SDS011;8595;52.542;11.974;2023-03-13T03:28:03;24.97;;;5.90;;
16957;SDS011;8595;52.542;11.974;2023-03-13T03:30:30;26.03;;;6.47;;
16957;SDS011;8595;52.542;11.974;2023-03-13T03:32:58;18.23;;;6.43;;
16957;SDS011;8595;52.542;11.974;2023-03-13T03:35:26;19.47;;;6.87;;
16957;SDS011;8595;52.542;11.974;2023-03-13T03:37:52;21.57;;;6.80;;
16957;SDS011;8595;52.542;11.974;2023-03-13T03:40:19;17.53;;;6.30;;
16957;SDS011;8595;52.542;11.974;2023-03-13T03:42:46;22.07;;;7.17;;
16957;SDS011;8595;52.542;11.974;2023-03-13T03:45:12;19.80;;;6.17;;
16957;SDS011;8595;52.542;11.974;2023-03-13T03:47:39;17.30;;;6.57;;
16957;SDS011;8595;52.542;11.974;2023-03-13T03:50:08;18.60;;;6.53;;
16957;SDS011;8595;52.542;11.974;2023-03-13T03:52:36;25.10;;;6.73;;
16957;SDS011;8595;52.542;11.974;2023-03-13T03:55:03;21.13;;;6.90;;
16957;SDS011;8595;52.542;11.974;2023-03-13T03:57:30;22.80;;;6.47;;
16957;SDS011;8595;52.542;11.974;2023-03-13T03:59:57;21.40;;;6.53;;
16957;SDS011;8595;52.542;11.974;2023-03-13T04:02:23;20.67;;;6.47;;
16957;SDS011;8595;52.542;11.974;2023-03-13T04:04:50;19.07;;;7.13;;
16957;SDS011;8595;52.542;11.974;2023-03-13T04:07:18;19.23;;;7.27;;
16957;SDS011;8595;52.542;11.974;2023-03-13T04:09:46;25.80;;;7.17;;
16957;SDS011;8595;52.542;11.974;2023-03-13T04:12:12;22.73;;;7.20;;
16957;SDS011;8595;52.542;11.974;2023-03-13T04:14:39;28.13;;;8.77;;
16957;SDS011;8595;52.542;11.974;2023-03-13T04:17:05;30.57;;;7.57;;
16957;SDS011;8595;52.542;11.974;2023-03-13T04:19:32;23.97;;;7.23;;
16957;SDS011;8595;52.542;11.974;2023-03-13T04:21:59;20.40;;;7.27;;
16957;SDS011;8595;52.542;11.974;2023-03-13T04:24:27;24.87;;;8.10;;
16957;SDS011;8595;52.542;11.974;2023-03-13T04:26:53;24.07;;;7.60;;
16957;SDS011;8595;52.542;11.974;2023-03-13T04:29:20;24.07;;;7.17;;
16957;SDS011;8595;52.542;11.974;2023-03-13T04:31:47;25.03;;;7.20;;
16957;SDS011;8595;52.542;11.974;2023-03-13T04:34:13;22.30;;;7.63;;
16957;SDS011;8595;52.542;11.974;2023-03-13T04:36:40;29.63;;;8.63;;
16957;SDS011;8595;52.542;11.974;2023-03-13T04:39:06;35.70;;;8.60;;
16957;SDS011;8595;52.542;11.974;2023-03-13T04:41:34;29.63;;;8.73;;
16957;SDS011;8595;52.542;11.974;2023-03-13T04:44:01;27.37;;;8.67;;
16957;SDS011;8595;52.542;11.974;2023-03-13T04:46:28;34.97;;;9.27;;
16957;SDS011;8595;52.542;11.974;2023-03-13T04:48:54;26.80;;;8.50;;
16957;SDS011;8595;52.542;11.974;2023-03-13T04:51:21;22.53;;;7.90;;
16957;SDS011;8595;52.542;11.974;2023-03-13T04:53:48;30.60;;;8.23;;
16957;SDS011;8595;52.542;11.974;2023-03-13T04:56:16;32.13;;;8.10;;
16957;SDS011;8595;52.542;11.974;2023-03-13T04:58:48;31.07;;;8.57;;
16957;SDS011;8595;52.542;11.974;2023-03-13T05:01:14;39.27;;;10.30;;
16957;SDS011;8595;52.542;11.974;2023-03-13T05:03:41;34.97;;;8.83;;
16957;SDS011;8595;52.542;11.974;2023-03-13T05:06:08;28.13;;;7.37;;
16957;SDS011;8595;52.542;11.974;2023-03-13T05:08:35;37.97;;;9.50;;
16957;SDS011;8595;52.542;11.974;2023-03-13T05:11:03;27.33;;;8.30;;
16957;SDS011;8595;52.542;11.974;2023-03-13T05:13:30;27.70;;;7.60;;
16957;SDS011;8595;52.542;11.974;2023-03-13T05:15:58;28.47;;;8.40;;
16957;SDS011;8595;52.542;11.974;2023-03-13T05:18:25;26.03;;;7.00;;
16957;SDS011;8595;52.542;11.974;2023-03-13T05:20:52;34.63;;;8.77;;
16957;SDS011;8595;52.542;11.974;2023-03-13T05:23:19;31.57;;;8.13;;
16957;SDS011;8595;52.542;11.974;2023-03-13T05:25:45;26.80;;;7.53;;
16957;SDS011;8595;52.542;11.974;2023-03-13T05:28:12;38.97;;;8.57;;
16957;SDS011;8595;52.542;11.974;2023-03-13T05:30:39;28.30;;;7.97;;
16957;SDS011;8595;52.542;11.974;2023-03-13T05:33:07;27.30;;;7.17;;
16957;SDS011;8595;52.542;11.974;2023-03-13T05:35:33;32.17;;;8.13;;
16957;SDS011;8595;52.542;11.974;2023-03-13T05:38:00;26.87;;;8.00;;
16957;SDS011;8595;52.542;11.974;2023-03-13T05:40:27;33.60;;;7.97;;
16957;SDS011;8595;52.542;11.974;2023-03-13T05:42:54;29.70;;;8.40;;
16957;SDS011;8595;52.542;11.974;2023-03-13T05:45:20;28.97;;;7.70;;
16957;SDS011;8595;52.542;11.974;2023-03-13T05:47:47;36.53;;;8.13;;
16957;SDS011;8595;52.542;11.974;2023-03-13T05:50:15;29.23;;;7.77;;
16957;SDS011;8595;52.542;11.974;2023-03-13T05:52:42;32.93;;;7.83;;
16957;SDS011;8595;52.542;11.974;2023-03-13T05:55:08;28.77;;;7.50;;
16957;SDS011;8595;52.542;11.974;2023-03-13T05:57:35;29.00;;;7.43;;
16957;SDS011;8595;52.542;11.974;2023-03-13T06:00:03;25.93;;;7.10;;
16957;SDS011;8595;52.542;11.974;2023-03-13T06:02:32;33.50;;;8.43;;
16957;SDS011;8595;52.542;11.974;2023-03-13T06:04:59;28.27;;;6.50;;
16957;SDS011;8595;52.542;11.974;2023-03-13T06:07:27;26.17;;;7.23;;
16957;SDS011;8595;52.542;11.974;2023-03-13T06:09:53;26.43;;;6.73;;
16957;SDS011;8595;52.542;11.974;2023-03-13T06:12:20;33.27;;;7.53;;
16957;SDS011;8595;52.542;11.974;2023-03-13T06:14:46;27.70;;;8.07;;
16957;SDS011;8595;52.542;11.974;2023-03-13T06:17:13;38.60;;;7.83;;
16957;SDS011;8595;52.542;11.974;2023-03-13T06:19:40;29.17;;;8.07;;
16957;SDS011;8595;52.542;11.974;2023-03-13T06:22:06;25.50;;;7.07;;
16957;SDS011;8595;52.542;11.974;2023-03-13T06:24:35;25.17;;;6.83;;
16957;SDS011;8595;52.542;11.974;2023-03-13T06:27:01;35.57;;;7.97;;
16957;SDS011;8595;52.542;11.974;2023-03-13T06:29:28;31.97;;;7.93;;
16957;SDS011;8595;52.542;11.974;2023-03-13T06:31:55;30.10;;;7.43;;
16957;SDS011;8595;52.542;11.974;2023-03-13T06:34:21;39.30;;;8.77;;
16957;SDS011;8595;52.542;11.974;2023-03-13T06:36:48;26.07;;;7.23;;
16957;SDS011;8595;52.542;11.974;2023-03-13T06:39:15;28.93;;;7.03;;
16957;SDS011;8595;52.542;11.974;2023-03-13T06:41:43;49.30;;;10.17;;
16957;SDS011;8595;52.542;11.974;2023-03-13T06:44:09;25.87;;;8.10;;
16957;SDS011;8595;52.542;11.974;2023-03-13T06:46:36;33.17;;;8.37;;
16957;SDS011;8595;52.542;11.974;2023-03-13T06:49:03;25.57;;;7.07;;
16957;SDS011;8595;52.542;11.974;2023-03-13T06:51:30;32.07;;;7.60;;
16957;SDS011;8595;52.542;11.974;2023-03-13T06:53:57;24.53;;;7.50;;
16957;SDS011;8595;52.542;11.974;2023-03-13T06:56:23;24.13;;;6.40;;
16957;SDS011;8595;52.542;11.974;2023-03-13T06:58:51;30.67;;;8.10;;
16957;SDS011;8595;52.542;11.974;2023-03-13T07:01:18;29.27;;;8.30;;
16957;SDS011;8595;52.542;11.974;2023-03-13T07:03:45;27.00;;;7.97;;
16957;SDS011;8595;52.542;11.974;2023-03-13T07:06:13;27.90;;;7.67;;
16957;SDS011;8595;52.542;11.974;2023-03-13T07:08:40;32.50;;;8.63;;
16957;SDS011;8595;52.542;11.974;2023-03-13T07:11:09;41.50;;;8.73;;
16957;SDS011;8595;52.542;11.974;2023-03-13T07:13:37;25.10;;;7.70;;
16957;SDS011;8595;52.542;11.974;2023-03-13T07:16:07;34.63;;;9.07;;
16957;SDS011;8595;52.542;11.974;2023-03-13T07:18:35;28.77;;;8.13;;
16957;SDS011;8595;52.542;11.974;2023-03-13T07:21:08;24.57;;;7.70;;
16957;SDS011;8595;52.542;11.974;2023-03-13T07:23:35;24.60;;;8.33;;
16957;SDS011;8595;52.542;11.974;2023-03-13T07:26:02;21.63;;;7.50;;
16957;SDS011;8595;52.542;11.974;2023-03-13T07:28:30;24.33;;;8.50;;
16957;SDS011;8595;52.542;11.974;2023-03-13T07:31:06;25.47;;;8.73;;
16957;SDS011;8595;52.542;11.974;2023-03-13T07:33:35;27.23;;;9.03;;
16957;SDS011;8595;52.542;11.974;2023-03-13T07:36:02;31.67;;;8.43;;
16957;SDS011;8595;52.542;11.974;2023-03-13T07:38:29;25.37;;;9.00;;
16957;SDS011;8595;52.542;11.974;2023-03-13T07:40:56;33.17;;;9.17;;
16957;SDS011;8595;52.542;11.974;2023-03-13T07:43:23;35.40;;;8.77;;
16957;SDS011;8595;52.542;11.974;2023-03-13T07:45:51;26.67;;;8.57;;
16957;SDS011;8595;52.542;11.974;2023-03-13T07:48:21;24.50;;;7.17;;
16957;SDS011;8595;52.542;11.974;2023-03-13T07:50:49;20.70;;;8.40;;
16957;SDS011;8595;52.542;11.974;2023-03-13T07:53:16;24.13;;;8.53;;
16957;SDS011;8595;52.542;11.974;2023-03-13T07:55:52;24.50;;;7.67;;
16957;SDS011;8595;52.542;11.974;2023-03-13T07:58:20;30.33;;;8.77;;
16957;SDS011;8595;52.542;11.974;2023-03-13T08:00:47;24.93;;;7.30;;
16957;SDS011;8595;52.542;11.974;2023-03-13T08:03:14;20.63;;;7.70;;
16957;SDS011;8595;52.542;11.974;2023-03-13T08:05:42;23.70;;;6.97;;
16957;SDS011;8595;52.542;11.974;2023-03-13T08:08:09;23.57;;;7.53;;
16957;SDS011;8595;52.542;11.974;2023-03-13T08:10:36;20.30;;;7.10;;
16957;SDS011;8595;52.542;11.974;2023-03-13T08:13:03;18.87;;;6.87;;
16957;SDS011;8595;52.542;11.974;2023-03-13T08:15:29;16.47;;;6.37;;
16957;SDS011;8595;52.542;11.974;2023-03-13T08:17:57;20.63;;;7.27;;
16957;SDS011;8595;52.542;11.974;2023-03-13T08:20:23;24.53;;;7.33;;
16957;SDS011;8595;52.542;11.974;2023-03-13T08:22:52;22.93;;;6.77;;
16957;SDS011;8595;52.542;11.974;2023-03-13T08:25:20;24.37;;;7.27;;
16957;SDS011;8595;52.542;11.974;2023-03-13T08:27:47;20.83;;;6.87;;
16957;SDS011;8595;52.542;11.974;2023-03-13T08:30:14;23.27;;;6.57;;
16957;SDS011;8595;52.542;11.974;2023-03-13T08:32:41;18.20;;;6.17;;
16957;SDS011;8595;52.542;11.974;2023-03-13T08:35:08;19.43;;;5.93;;
16957;SDS011;8595;52.542;11.974;2023-03-13T08:37:35;16.53;;;5.57;;
16957;SDS011;8595;52.542;11.974;2023-03-13T08:40:03;14.57;;;5.40;;
16957;SDS011;8595;52.542;11.974;2023-03-13T08:42:34;17.63;;;5.70;;
16957;SDS011;8595;52.542;11.974;2023-03-13T08:45:02;25.23;;;6.30;;
16957;SDS011;8595;52.542;11.974;2023-03-13T08:47:30;13.80;;;4.90;;
16957;SDS011;8595;52.542;11.974;2023-03-13T08:49:56;15.07;;;5.27;;
16957;SDS011;8595;52.542;11.974;2023-03-13T08:52:23;15.40;;;6.17;;
16957;SDS011;8595;52.542;11.974;2023-03-13T08:54:50;17.53;;;6.13;;
16957;SDS011;8595;52.542;11.974;2023-03-13T08:57:18;17.40;;;5.73;;
16957;SDS011;8595;52.542;11.974;2023-03-13T08:59:45;17.13;;;6.00;;
16957;SDS011;8595;52.542;11.974;2023-03-13T09:02:11;16.60;;;5.63;;
16957;SDS011;8595;52.542;11.974;2023-03-13T09:04:43;15.75;;;4.93;;
16957;SDS011;8595;52.542;11.974;2023-03-13T09:07:10;16.53;;;6.03;;
16957;SDS011;8595;52.542;11.974;2023-03-13T09:09:37;17.03;;;4.97;;
16957;SDS011;8595;52.542;11.974;2023-03-13T09:12:04;18.65;;;4.65;;
16957;SDS011;8595;52.542;11.974;2023-03-13T09:14:32;11.07;;;5.17;;
16957;SDS011;8595;52.542;11.974;2023-03-13T09:16:59;9.48;;;4.47;;
16957;SDS011;8595;52.542;11.974;2023-03-13T09:19:26;13.68;;;4.78;;
16957;SDS011;8595;52.542;11.974;2023-03-13T09:21:52;11.73;;;4.33;;
16957;SDS011;8595;52.542;11.974;2023-03-13T09:24:19;7.87;;;3.73;;
16957;SDS011;8595;52.542;11.974;2023-03-13T09:26:46;11.23;;;3.93;;
16957;SDS011;8595;52.542;11.974;2023-03-13T09:29:12;8.43;;;4.50;;
16957;SDS011;8595;52.542;11.974;2023-03-13T09:31:40;13.27;;;4.97;;
16957;SDS011;8595;52.542;11.974;2023-03-13T09:34:07;11.30;;;4.03;;
16957;SDS011;8595;52.542;11.974;2023-03-13T09:36:34;12.20;;;5.03;;
16957;SDS011;8595;52.542;11.974;2023-03-13T09:39:00;10.60;;;3.53;;
16957;SDS011;8595;52.542;11.974;2023-03-13T09:41:29;12.05;;;4.28;;
16957;SDS011;8595;52.542;11.974;2023-03-13T09:44:02;10.30;;;4.05;;
16957;SDS011;8595;52.542;11.974;2023-03-13T09:46:36;10.52;;;3.92;;
16957;SDS011;8595;52.542;11.974;2023-03-13T09:49:10;8.27;;;3.75;;
16957;SDS011;8595;52.542;11.974;2023-03-13T09:51:41;10.75;;;4.25;;
16957;SDS011;8595;52.542;11.974;2023-03-13T09:54:16;7.72;;;3.70;;
16957;SDS011;8595;52.542;11.974;2023-03-13T09:56:51;10.52;;;4.30;;
16957;SDS011;8595;52.542;11.974;2023-03-13T09:59:21;11.52;;;3.83;;
16957;SDS011;8595;52.542;11.974;2023-03-13T10:01:54;10.88;;;3.80;;
16957;SDS011;8595;52.542;11.974;2023-03-13T10:04:27;6.32;;;3.17;;
16957;SDS011;8595;52.542;11.974;2023-03-13T10:06:57;11.13;;;4.38;;
16957;SDS011;8595;52.542;11.974;2023-03-13T10:09:25;10.07;;;4.28;;
16957;SDS011;8595;52.542;11.974;2023-03-13T10:11:56;8.10;;;3.67;;
16957;SDS011;8595;52.542;11.974;2023-03-13T10:14:33;6.18;;;3.90;;
16957;SDS011;8595;52.542;11.974;2023-03-13T10:17:08;8.13;;;3.08;;
16957;SDS011;8595;52.542;11.974;2023-03-13T10:19:42;9.52;;;3.75;;
16957;SDS011;8595;52.542;11.974;2023-03-13T10:22:12;5.68;;;3.15;;
16957;SDS011;8595;52.542;11.974;2023-03-13T10:24:44;6.35;;;2.70;;
16957;SDS011;8595;52.542;11.974;2023-03-13T10:27:15;5.75;;;3.00;;
16957;SDS011;8595;52.542;11.974;2023-03-13T10:29:42;6.32;;;2.85;;
16957;SDS011;8595;52.542;11.974;2023-03-13T10:32:09;7.97;;;3.17;;
16957;SDS011;8595;52.542;11.974;2023-03-13T10:34:51;5.95;;;3.15;;
16957;SDS011;8595;52.542;11.974;2023-03-13T10:37:22;5.47;;;2.85;;
16957;SDS011;8595;52.542;11.974;2023-03-13T10:39:50;7.13;;;2.75;;
16957;SDS011;8595;52.542;11.974;2023-03-13T10:42:19;6.75;;;2.40;;
16957;SDS011;8595;52.542;11.974;2023-03-13T10:44:49;3.97;;;2.20;;
16957;SDS011;8595;52.542;11.974;2023-03-13T10:47:21;4.72;;;2.45;;
16957;SDS011;8595;52.542;11.974;2023-03-13T10:49:49;5.68;;;2.80;;
16957;SDS011;8595;52.542;11.974;2023-03-13T10:52:28;6.15;;;2.83;;
16957;SDS011;8595;52.542;11.974;2023-03-13T10:55:01;5.63;;;2.70;;
16957;SDS011;8595;52.542;11.974;2023-03-13T10:57:29;6.63;;;2.78;;
16957;SDS011;8595;52.542;11.974;2023-03-13T10:59:57;3.25;;;2.60;;
16957;SDS011;8595;52.542;11.974;2023-03-13T11:02:26;3.65;;;2.72;;
16957;SDS011;8595;52.542;11.974;2023-03-13T11:04:59;4.13;;;2.40;;
16957;SDS011;8595;52.542;11.974;2023-03-13T11:07:26;6.38;;;2.72;;
16957;SDS011;8595;52.542;11.974;2023-03-13T11:09:58;5.00;;;2.78;;
16957;SDS011;8595;52.542;11.974;2023-03-13T11:12:27;6.25;;;3.22;;
16957;SDS011;8595;52.542;11.974;2023-03-13T11:14:58;3.22;;;2.30;;
16957;SDS011;8595;52.542;11.974;2023-03-13T11:17:29;5.68;;;2.60;;
16957;SDS011;8595;52.542;11.974;2023-03-13T11:20:11;3.05;;;2.22;;
16957;SDS011;8595;52.542;11.974;2023-03-13T11:22:48;4.45;;;2.10;;
16957;SDS011;8595;52.542;11.974;2023-03-13T11:25:32;4.90;;;2.42;;
16957;SDS011;8595;52.542;11.974;2023-03-13T11:28:06;5.63;;;2.80;;
16957;SDS011;8595;52.542;11.974;2023-03-13T11:30:43;3.95;;;2.40;;
16957;SDS011;8595;52.542;11.974;2023-03-13T11:33:18;3.97;;;2.15;;
16957;SDS011;8595;52.542;11.974;2023-03-13T11:35:55;3.20;;;2.15;;
16957;SDS011;8595;52.542;11.974;2023-03-13T11:38:28;3.90;;;2.22;;
16957;SDS011;8595;52.542;11.974;2023-03-13T11:41:02;3.58;;;2.13;;
16957;SDS011;8595;52.542;11.974;2023-03-13T11:43:41;3.45;;;2.50;;
16957;SDS011;8595;52.542;11.974;2023-03-13T11:46:23;2.17;;;2.00;;
16957;SDS011;8595;52.542;11.974;2023-03-13T11:51:59;3.53;;;2.20;;
16957;SDS011;8595;52.542;11.974;2023-03-13T11:54:40;6.68;;;2.28;;
16957;SDS011;8595;52.542;11.974;2023-03-13T11:57:28;2.50;;;2.15;;
16957;SDS011;8595;52.542;11.974;2023-03-13T12:02:47;5.72;;;3.95;;
16957;SDS011;8595;52.542;11.974;2023-03-13T12:05:19;5.43;;;2.40;;
16957;SDS011;8595;52.542;11.974;2023-03-13T12:07:50;4.50;;;2.22;;
16957;SDS011;8595;52.542;11.974;2023-03-13T12:10:22;2.33;;;2.13;;
16957;SDS011;8595;52.542;11.974;2023-03-13T12:12:55;4.53;;;2.53;;
16957;SDS011;8595;52.542;11.974;2023-03-13T12:15:27;5.47;;;2.58;;
16957;SDS011;8595;52.542;11.974;2023-03-13T12:17:58;4.10;;;2.30;;
16957;SDS011;8595;52.542;11.974;2023-03-13T12:20:31;4.28;;;2.05;;
16957;SDS011;8595;52.542;11.974;2023-03-13T12:23:06;2.78;;;1.98;;
16957;SDS011;8595;52.542;11.974;2023-03-13T12:25:43;2.92;;;2.15;;
16957;SDS011;8595;52.542;11.974;2023-03-13T12:28:26;3.78;;;2.05;;
16957;SDS011;8595;52.542;11.974;2023-03-13T12:31:06;3.03;;;1.75;;
16957;SDS011;8595;52.542;11.974;2023-03-13T12:33:40;7.00;;;4.85;;
16957;SDS011;8595;52.542;11.974;2023-03-13T12:36:12;5.00;;;2.63;;
16957;SDS011;8595;52.542;11.974;2023-03-13T12:38:45;2.28;;;1.48;;
16957;SDS011;8595;52.542;11.974;2023-03-13T12:41:18;4.53;;;2.47;;
16957;SDS011;8595;52.542;11.974;2023-03-13T12:43:49;5.20;;;1.80;;
16957;SDS011;8595;52.542;11.974;2023-03-13T12:46:25;5.95;;;1.80;;
16957;SDS011;8595;52.542;11.974;2023-03-13T12:52:24;4.03;;;2.17;;
16957;SDS011;8595;52.542;11.974;2023-03-13T12:55:07;2.25;;;1.48;;
16957;SDS011;8595;52.542;11.974;2023-03-13T12:58:09;3.25;;;1.77;;
16957;SDS011;8595;52.542;11.974;2023-03-13T13:00:40;2.20;;;1.55;;
16957;SDS011;8595;52.542;11.974;2023-03-13T13:03:14;1.98;;;1.42;;
16957;SDS011;8595;52.542;11.974;2023-03-13T13:05:57;2.75;;;1.80;;
16957;SDS011;8595;52.542;11.974;2023-03-13T13:08:25;3.10;;;1.80;;
16957;SDS011;8595;52.542;11.974;2023-03-13T13:10:53;2.92;;;2.42;;
16957;SDS011;8595;52.542;11.974;2023-03-13T13:13:40;2.60;;;2.40;;
16957;SDS011;8595;52.542;11.974;2023-03-13T13:16:10;4.90;;;2.75;;
16957;SDS011;8595;52.542;11.974;2023-03-13T13:18:43;3.90;;;2.50;;
16957;SDS011;8595;52.542;11.974;2023-03-13T13:21:19;3.08;;;2.50;;
16957;SDS011;8595;52.542;11.974;2023-03-13T13:23:50;3.00;;;2.00;;
16957;SDS011;8595;52.542;11.974;2023-03-13T13:41:19;4.45;;;2.53;;
16957;SDS011;8595;52.542;11.974;2023-03-13T13:44:23;2.90;;;2.30;;
16957;SDS011;8595;52.542;11.974;2023-03-13T13:46:52;3.42;;;2.20;;
16957;SDS011;8595;52.542;11.974;2023-03-13T13:49:21;2.45;;;2.20;;
16957;SDS011;8595;52.542;11.974;2023-03-13T13:55:14;3.33;;;2.20;;
16957;SDS011;8595;52.542;11.974;2023-03-13T13:57:58;2.60;;;2.13;;
16957;SDS011;8595;52.542;11.974;2023-03-13T14:00:32;2.47;;;1.98;;
16957;SDS011;8595;52.542;11.974;2023-03-13T14:03:10;4.85;;;2.05;;
16957;SDS011;8595;52.542;11.974;2023-03-13T14:05:46;1.95;;;1.85;;
16957;SDS011;8595;52.542;11.974;2023-03-13T14:08:16;4.63;;;2.95;;
16957;SDS011;8595;52.542;11.974;2023-03-13T14:10:49;4.95;;;2.45;;
16957;SDS011;8595;52.542;11.974;2023-03-13T14:13:20;2.45;;;2.20;;
16957;SDS011;8595;52.542;11.974;2023-03-13T14:15:50;2.28;;;1.90;;
16957;SDS011;8595;52.542;11.974;2023-03-13T14:18:22;2.90;;;2.00;;
16957;SDS011;8595;52.542;11.974;2023-03-13T14:20:51;2.10;;;1.90;;
16957;SDS011;8595;52.542;11.974;2023-03-13T14:23:34;2.17;;;1.95;;
16957;SDS011;8595;52.542;11.974;2023-03-13T14:26:10;2.80;;;2.35;;
16957;SDS011;8595;52.542;11.974;2023-03-13T14:28:39;1.83;;;1.60;;
16957;SDS011;8595;52.542;11.974;2023-03-13T14:31:08;3.38;;;1.90;;
16957;SDS011;8595;52.542;11.974;2023-03-13T14:33:36;2.80;;;1.85;;
16957;SDS011;8595;52.542;11.974;2023-03-13T14:36:03;2.17;;;1.85;;
16957;SDS011;8595;52.542;11.974;2023-03-13T14:38:30;2.72;;;1.95;;
16957;SDS011;8595;52.542;11.974;2023-03-13T14:40:57;4.40;;;2.10;;
16957;SDS011;8595;52.542;11.974;2023-03-13T14:43:27;2.05;;;1.40;;
16957;SDS011;8595;52.542;11.974;2023-03-13T14:45:57;3.53;;;1.85;;
16957;SDS011;8595;52.542;11.974;2023-03-13T14:48:27;1.50;;;1.40;;
16957;SDS011;8595;52.542;11.974;2023-03-13T14:50:59;2.22;;;1.70;;
16957;SDS011;8595;52.542;11.974;2023-03-13T14:53:27;2.17;;;1.95;;
16957;SDS011;8595;52.542;11.974;2023-03-13T14:56:08;3.28;;;2.97;;
16957;SDS011;8595;52.542;11.974;2023-03-13T14:58:38;5.40;;;2.65;;
16957;SDS011;8595;52.542;11.974;2023-03-13T15:01:11;2.47;;;1.80;;
16957;SDS011;8595;52.542;11.974;2023-03-13T15:03:46;1.63;;;1.52;;
16957;SDS011;8595;52.542;11.974;2023-03-13T15:06:14;1.98;;;1.65;;
16957;SDS011;8595;52.542;11.974;2023-03-13T15:08:43;3.17;;;1.60;;
16957;SDS011;8595;52.542;11.974;2023-03-13T15:11:18;2.58;;;1.38;;
16957;SDS011;8595;52.542;11.974;2023-03-13T15:13:49;3.55;;;1.40;;
16957;SDS011;8595;52.542;11.974;2023-03-13T15:16:17;2.45;;;1.70;;
16957;SDS011;8595;52.542;11.974;2023-03-13T15:18:47;2.80;;;1.73;;
16957;SDS011;8595;52.542;11.974;2023-03-13T15:21:18;2.58;;;1.80;;
16957;SDS011;8595;52.542;11.974;2023-03-13T15:23:48;2.53;;;1.63;;